Airfield :
LOGIN :

Register | Disclaimer

   EN    FR    IT 

 










Legend :    VFR   Marginal VFR   IFR   Intensive IFR   Very Intensive IFR
Visi :
Ceiling :
>= 8 km
>= 3000ft
5 to 8 km
1000 to 3000 ft
1500m to 5 km
500 to 1000 ft
800 to 1500m
200 to 500 ft
< 800m
< 200 ft
Symbols :   Thunderstorms  Fog  Heavy snow  Heavy precipitations  Wind > 20 kt
SIGMETs :     Misc.  Thunderstorms  Icing  Turbulence  Mountain Waves  Volcanic Ashes






- Airport Elevation : 605 ft
- IATA code : BAY


LRBM - Tautii Magheraus

CURRENT METAR :
  • 271700Z 02004KT 350V050 9999 FEW055 13/09 Q1014

EXPIRED METARs :
  • 271630Z AUTO 36002KT 330V050 9999 BKN055/// 13/09 Q1014
  • 271600Z AUTO 35002KT 310V040 9999 NCD 14/09 Q1013
  • 271530Z AUTO 26002KT 240V320 9999 FEW055/// 17/06 Q1013
  • 271500Z AUTO 24006KT 9999 SCT055/// 17/06 Q1013
  • 271430Z AUTO 24008KT 9999 FEW060/// 17/06 Q1013

TAF TAF LRBM
Valid from the 27 at 15:00 until the 28 at 00:00 UTC


271400Z 2715/2800 VRB04KT 9999 SCT055
TEMPO 2722/2800 09010KT



MET'MAP, your aeronautical weather chart ! - Copyright ORBIFLY December 2007 - Disclaimer

ORBIFLY MET'MAP TEAM :

Programming & Development : Alexandra Zaïnal
Concept & original design : Baudouin d'Aumeries
Assistance for programming : Marc-Olivier Méhu
Technical & hardware support : Manuel Goepfert

Contact : metmap@orbifly.com




SOURCES & CREDITS :

   NOAA